Tiempo atmosférico en la estación meteorológica de Muñotello, Ávila (1178 m.)



Fecha
DESCASC
Temp. máxima en grados centígrados (hora)
DESCASC
Temp. mínima en grados centígrados (hora)
DESCASC
Temp. media en grados centígrados
DESCASC
Racha de viento máxima en m/sg (hora)
DESCASC
Velocidad máxima media en intervalos de 10 minutos(hora)
DESCASC
Precipitaciones diarias en mm
DESCASC
Precipitaciones de 00:00 a 06:00 en mm
DESCASC
Precipitaciones de 06:00 a 12:00 en mm
DESCASC
Precipitaciones de 12:00 a 18:00 en mm
DESCASC
Precipitaciones de 18:00 a 24:00 en mm
DESCASC
06-07-2020 31.7 (18:20) 18.1 (07:10) 24.9 7.78 (17:10) 4.44 (19:30) 0 0 0 0 0
05-07-2020 32.2 (16:50) 14.4 (07:00) 23.3 8.89 (12:40) 5.28 (13:30) 0 0 0 0 0
04-07-2020 29.4 (16:40) 12.3 (06:10) 20.8 7.78 (17:30) 3.89 (23:00) 0 0 0 0 0
03-07-2020 27.1 (18:10) 8.9 (07:10) 18 7.78 (19:10) 4.44 (19:10) 0 0 0 0 0
02-07-2020 26.2 (16:10) 13.3 (00:00) 19.8 11.94 (16:50) 7.22 (12:20) 0 0 0 0 0
01-07-2020 29 (16:50) 16.3 (00:00) 22.6 10.56 (16:20) 6.94 (11:10) 0 0 0 0 0
30-06-2020 31.9 (16:50) 16.8 (00:00) 24.3 10.83 (17:10) 6.39 (20:10) 0 0 0 0 0
29-06-2020 31.6 (16:30) 13.7 (00:00) 22.7 7.78 (17:50) 4.72 (15:00) 0 0 0 0 0
28-06-2020 29.1 (16:50) 12.4 (00:00) 20.8 8.33 (23:20) 4.17 (19:40) 0 0 0 0 0
27-06-2020 26.3 (16:30) 11.9 (00:00) 19.1 11.39 (15:20) 6.11 (16:00) 0 0 0 0 0
26-06-2020 26.1 (14:50) 13.7 (00:00) 19.9 11.67 (14:50) 7.78 (15:20) 0 0 0 0 0
25-06-2020 29.6 (13:10) 16.3 (00:00) 22.9 10 (16:50) 6.39 (16:40) 0 0 0 0 0
24-06-2020 30.1 (13:00) 18.1 (00:00) 24.1 15.56 (14:00) 9.72 (15:30) 0 0 0 0 0
23-06-2020 33 (15:00) 14.3 (00:00) 23.7 9.72 (14:00) 5 (13:40) 0 0 0 0 0
22-06-2020 30.7 (17:00) 13.2 (00:00) 22 7.78 (17:40) 4.72 (16:30) 0 0 0 0 0
21-06-2020 27.9 (17:10) 11.2 (00:00) 19.5 7.78 (00:50) 5 (00:50) 0 0 0 0 0
20-06-2020 27.1 (15:50) 10.9 (00:00) 19 9.44 (14:20) 6.11 (14:10) 0 0 0 0 0
19-06-2020 25.1 (18:00) 9.8 (00:00) 17.5 11.67 (13:30) 5.83 (14:10) 0 0 0 0 0
18-06-2020 23.6 (16:50) 8.8 (00:00) 16.2 10 (17:40) 6.11 (17:40) 0 0 0 0 0
17-06-2020 21.2 (16:50) 7.6 (00:00) 14.4 10 (17:50) 5.83 (17:10) 0 0 0 0 0
16-06-2020 20.2 (16:00) 10.2 (00:00) 15.2 13.33 (17:30) 8.61 (17:30) 0 0 0 0 0
15-06-2020 21.5 (16:10) 9.1 (00:00) 15.3 10.56 (18:10) 6.67 (17:20) 0 0 0 0 0
14-06-2020 20.2 (17:00) 6.4 (00:00) 13.3 10 (12:30) 7.22 (12:30) 0 0 0 0 0
13-06-2020 17.9 (16:30) 6.8 (00:00) 12.3 13.33 (00:20) 7.78 (16:20) 0 0 0 0 0
12-06-2020 15.6 (16:10) 6.2 (00:00) 10.9 15.56 (06:10) 8.61 (00:10) 7.4 0 0 0.2 7.2
11-06-2020 18.8 (16:50) 8.2 (00:00) 13.5 13.89 (19:20) 9.44 (11:20) 0 0 0 0 0
10-06-2020 22.5 (17:20) 6.6 (00:00) 14.5 10.28 (15:30) 6.39 (17:40) 0 0 0 0 0
09-06-2020 18.8 (16:30) 4.9 (00:00) 11.8 8.33 (17:30) 5 (15:40) 0 0 0 0 0
08-06-2020 17.1 (17:50) 7.4 (06:40) 12.3 8.33 (17:40) 5 (19:40) 0 0 0 0 0
07-06-2020 18.2 (19:00) 10 (00:00) 14.1 12.22 (12:20) 8.61 (13:00) 1.4 0 0 0 1.4

Gráficas

Temp. máximas Temp. mínimas Temp. medias Precipitaciones Rachas de viento máximas Velocidades máximas media en intervalos de 10 minutos

Datos horarios

Fecha y hora oficial Temperatura (ºC) Velocidad del viento (km/h) Dirección del viento Racha (km/h) Dirección de racha Precipitación (mm) Presión (hPa) Tendencia (hPa) Humedad (%)
2020-07-06 23:00:00 24.5 5 Este 18 Este 0 -- -- 47
2020-07-06 22:00:00 25.9 5 Este 14 Noroeste 0 -- -- 43
2020-07-06 21:00:00 28.5 11 Noroeste 23 Noroeste 0 -- -- 36
2020-07-06 20:00:00 29.6 15 Noroeste 26 Norte 0 -- -- 33
2020-07-06 19:00:00 30.7 4 Noroeste 21 Noroeste 0 -- -- 31
2020-07-06 18:00:00 31.1 12 Norte 28 Nordeste 0 -- -- 30
2020-07-06 17:00:00 30.9 10 Noroeste 24 Noroeste 0 -- -- 30
2020-07-06 16:00:00 30.1 9 Oeste 26 Noroeste 0 -- -- 31
2020-07-06 15:00:00 31.4 7 Este 22 Nordeste 0 -- -- 31
2020-07-06 14:00:00 31 4 Norte 22 Norte 0 -- -- 31
2020-07-06 13:00:00 30.1 11 Nordeste 25 Nordeste 0 -- -- 33
2020-07-06 12:00:00 29.4 5 Este 14 Norte 0 -- -- 33
2020-07-06 11:00:00 28.2 6 Nordeste 11 Nordeste 0 -- -- 34
2020-07-06 10:00:00 26.6 3 Nordeste 6 Nordeste 0 -- -- 38
2020-07-06 09:00:00 23.8 0 Calma 4 Este 0 -- -- 40
2020-07-06 08:00:00 20 0 Calma 13 Sur 0 -- -- 49
2020-07-06 07:00:00 18.2 5 Sur 14 Sudoeste 0 -- -- 49
2020-07-06 06:00:00 19.6 12 Sur 14 Sur 0 -- -- 46
2020-07-06 05:00:00 18.9 6 Sudoeste 10 Sur 0 -- -- 46
2020-07-06 04:00:00 19.8 6 Sur 13 Sudoeste 0 -- -- 44
2020-07-06 03:00:00 19.1 2 Sudeste 11 Sur 0 -- -- 42
2020-07-06 02:00:00 20.7 6 Sur 12 Sur 0 -- -- 37
2020-07-06 01:00:00 22.1 12 Sur 15 Sur 0 -- -- 35
2020-07-06 00:00:00 22.6 11 Sur 16 Sur 0 -- -- 34
2020-07-05 23:00:00 23.5 10 Sur 14 Sur 0 -- -- 33
2020-07-05 22:00:00 25.7 6 Sudoeste 11 Sudoeste 0 -- -- 30
2020-07-05 21:00:00 28.5 6 Noroeste 17 Oeste 0 -- -- 25
2020-07-05 20:00:00 30.3 12 Noroeste 24 Oeste 0 -- -- 22
2020-07-05 19:00:00 31.3 12 Oeste 27 Noroeste 0 -- -- 21
2020-07-05 18:00:00 32.1 13 Oeste 28 Oeste 0 -- -- 20
2020-07-05 17:00:00 32 15 Oeste 26 Oeste 0 -- -- 19
2020-07-05 16:00:00 31.4 8 Norte 31 Oeste 0 -- -- 19
2020-07-05 15:00:00 30.9 16 Noroeste 28 Oeste 0 -- -- 19
2020-07-05 14:00:00 30.8 19 Oeste 30 Oeste 0 -- -- 20
2020-07-05 13:00:00 30.3 14 Oeste 32 Noroeste 0 -- -- 20
2020-07-05 12:00:00 28.5 7 Este 12 Nordeste 0 -- -- 23
2020-07-05 11:00:00 26 3 Norte 8 Norte 0 -- -- 24
2020-07-05 10:00:00 23.8 3 Noroeste 7 Oeste 0 -- -- 27
2020-07-05 09:00:00 21.3 3 Noroeste 5 Oeste 0 -- -- 38
2020-07-05 08:00:00 17.1 0 Calma 7 Sur 0 -- -- 37
2020-07-05 07:00:00 14.4 2 Oeste 8 Sur 0 -- -- 39
2020-07-05 06:00:00 15.5 0 Calma 8 Sur 0 -- -- 35
2020-07-05 05:00:00 15.9 6 Sur 10 Sur 0 -- -- 34
2020-07-05 04:00:00 17.2 8 Sur 12 Sur 0 -- -- 31
2020-07-05 03:00:00 17.7 8 Sudoeste 11 Sudoeste 0 -- -- 31
2020-07-05 02:00:00 17.8 5 Sur 13 Sur 0 -- -- 32
2020-07-05 01:00:00 20 12 Sur 15 Sur 0 -- -- 29
2020-07-05 00:00:00 20.4 11 Sur 16 Sur 0 -- -- 29
2020-07-04 23:00:00 21.1 14 Sur 18 Sur 0 -- -- 28
2020-07-04 22:00:00 23.2 8 Sur 12 Sur 0 -- -- 27
2020-07-04 21:00:00 26.3 7 Norte 20 Norte 0 -- -- 23
2020-07-04 20:00:00 27.7 10 Norte 18 Norte 0 -- -- 23
2020-07-04 19:00:00 28.3 9 Norte 21 Norte 0 -- -- 23
2020-07-04 18:00:00 28.8 10 Norte 28 Noroeste 0 -- -- 24
2020-07-04 17:00:00 28.9 10 Norte 27 Nordeste 0 -- -- 24
2020-07-04 16:00:00 28.9 5 Norte 21 Nordeste 0 -- -- 25
2020-07-04 15:00:00 28.2 9 Norte 20 Norte 0 -- -- 25
2020-07-04 14:00:00 27.9 8 Sur 19 Norte 0 -- -- 25
2020-07-04 13:00:00 26.6 6 Este 18 Nordeste 0 -- -- 26
2020-07-04 12:00:00 24.4 7 Norte 18 Nordeste 0 -- -- 28
2020-07-04 11:00:00 23.6 8 Este 16 Este 0 -- -- 30
2020-07-04 10:00:00 22.2 4 Nordeste 7 Este 0 -- -- 33
2020-07-04 09:00:00 18.4 2 Sudoeste 7 Sur 0 -- -- 45
2020-07-04 08:00:00 16 4 Sur 7 Sur 0 -- -- 49
2020-07-04 07:00:00 12.6 0 Calma 6 Sur 0 -- -- 52
2020-07-04 06:00:00 12.5 3 Sur 10 Sur 0 -- -- 52
2020-07-04 05:00:00 12.6 3 Sudeste 11 Sur 0 -- -- 53
2020-07-04 04:00:00 13.3 0 Calma 9 Sur 0 -- -- 49
2020-07-04 03:00:00 14.8 9 Sur 11 Sur 0 -- -- 45
2020-07-04 02:00:00 14.8 5 Oeste 13 Sur 0 -- -- 45
2020-07-04 01:00:00 15.5 5 Sur 16 Sur 0 -- -- 44
2020-07-04 00:00:00 18 14 Sur 18 Sur 0 -- -- 37
2020-07-03 23:00:00 19.1 10 Sur 13 Sur 0 -- -- 35
2020-07-03 22:00:00 21.3 0 Calma 13 Noroeste 0 -- -- 32
2020-07-03 21:00:00 23.5 13 Noroeste 22 Noroeste 0 -- -- 29
2020-07-03 20:00:00 25.3 13 Norte 28 Noroeste 0 -- -- 25
2020-07-03 19:00:00 26.3 13 Norte 24 Noroeste 0 -- -- 25
2020-07-03 18:00:00 26.7 7 Nordeste 17 Nordeste 0 -- -- 29
2020-07-03 17:00:00 26.4 6 Norte 24 Nordeste 0 -- -- 30
2020-07-03 16:00:00 25.9 11 Norte 24 Norte 0 -- -- 32
2020-07-03 15:00:00 25.2 14 Norte 23 Nordeste 0 -- -- 31
2020-07-03 14:00:00 24.2 9 Nordeste 19 Nordeste 0 -- -- 33
2020-07-03 13:00:00 23.1 6 Nordeste 13 Este 0 -- -- 35
2020-07-03 12:00:00 20.5 4 Norte 14 Norte 0 -- -- 45
2020-07-03 11:00:00 18.8 4 Nordeste 10 Nordeste 0 -- -- 51
2020-07-03 10:00:00 16.2 3 Nordeste 8 Noroeste 0 -- -- 58
2020-07-03 09:00:00 12.5 5 Noroeste 9 Noroeste 0 -- -- 74
2020-07-03 08:00:00 10.8 3 Noroeste 8 Nordeste 0 -- -- 73
2020-07-03 07:00:00 9.4 2 Sudeste 10 Sur 0 -- -- 74
2020-07-03 06:00:00 10 8 Sur 10 Sur 0 -- -- 72
2020-07-03 05:00:00 11.1 0 Calma 13 Sur 0 -- -- 67
2020-07-03 04:00:00 12.6 10 Sur 13 Sur 0 -- -- 62
2020-07-03 03:00:00 13.1 10 Oeste 15 Oeste 0 -- -- 61
2020-07-03 02:00:00 14.3 10 Sudoeste 22 Oeste 0 -- -- 57
2020-07-03 01:00:00 15.5 8 Oeste 26 Oeste 0 -- -- 54
2020-07-03 00:00:00 17.1 10 Oeste 33 Sudoeste 0 -- -- 45
2020-07-02 23:00:00 18.1 14 Oeste 27 Sudoeste 0 -- -- 39
2020-07-02 22:00:00 19.2 14 Sudoeste 31 Oeste 0 -- -- 38
2020-07-02 21:00:00 21.4 17 Oeste 32 Oeste 0 -- -- 39
2020-07-02 20:00:00 22.5 17 Oeste 35 Oeste 0 -- -- 41
2020-07-02 19:00:00 24.8 20 Oeste 33 Oeste 0 -- -- 39
2020-07-02 18:00:00 26.1 21 Oeste 38 Oeste 0 -- -- 35
2020-07-02 17:00:00 26 23 Oeste 43 Oeste 0 -- -- 36
2020-07-02 16:00:00 25.9 24 Oeste 41 Oeste 0 -- -- 37
2020-07-02 15:00:00 24.9 21 Oeste 37 Oeste 0 -- -- 37
2020-07-02 14:00:00 25.1 22 Oeste 40 Oeste 0 -- -- 32
2020-07-02 13:00:00 24 25 Oeste 37 Oeste 0 -- -- 36
2020-07-02 12:00:00 23.6 23 Oeste 35 Oeste 0 -- -- 39
2020-07-02 11:00:00 22 4 Oeste 18 Oeste 0 -- -- 51
2020-07-02 10:00:00 19.6 4 Oeste 14 Oeste 0 -- -- 59
2020-07-02 09:00:00 17.8 8 Oeste 14 Oeste 0 -- -- 65
2020-07-02 08:00:00 16.1 11 Oeste 15 Oeste 0 -- -- 72
2020-07-02 07:00:00 13.3 0 Calma 15 Oeste 0 -- -- 77
2020-07-02 06:00:00 13.8 5 Oeste 16 Oeste 0 -- -- 75
2020-07-02 05:00:00 14.1 6 Sur 10 Sur 0 -- -- 70
2020-07-02 04:00:00 15.2 4 Sudoeste 13 Oeste 0 -- -- 66
2020-07-02 03:00:00 15.3 0 Calma 15 Oeste 0 -- -- 66
2020-07-02 02:00:00 16.1 13 Oeste 16 Oeste 0 -- -- 64
2020-07-02 01:00:00 18.8 5 Noroeste 18 Oeste 0 -- -- 54
2020-07-02 00:00:00 20.3 12 Sudoeste 33 Oeste 0 -- -- 50
2020-07-01 23:00:00 21.9 11 Oeste 35 Sudoeste 0 -- -- 42
2020-07-01 22:00:00 23.2 19 Sudoeste 28 Oeste 0 -- -- 36
2020-07-01 21:00:00 25.2 18 Oeste 32 Oeste 0 -- -- 35
2020-07-01 20:00:00 26.6 17 Oeste 33 Oeste 0 -- -- 35
2020-07-01 19:00:00 27.5 16 Oeste 33 Oeste 0 -- -- 33
2020-07-01 18:00:00 28.6 21 Oeste 30 Oeste 0 -- -- 29
2020-07-01 17:00:00 28.4 20 Oeste 38 Oeste 0 -- -- 33
2020-07-01 16:00:00 28.4 22 Oeste 34 Oeste 0 -- -- 32
2020-07-01 15:00:00 28.9 22 Oeste 37 Oeste 0 -- -- 26
2020-07-01 14:00:00 28.1 18 Oeste 32 Oeste 0 -- -- 37
2020-07-01 13:00:00 26.6 17 Oeste 33 Oeste 0 -- -- 40
2020-07-01 12:00:00 25.3 23 Oeste 36 Oeste 0 -- -- 37
2020-07-01 11:00:00 23.8 20 Oeste 31 Oeste 0 -- -- 48
2020-07-01 10:00:00 22.2 16 Oeste 23 Oeste 0 -- -- 58
2020-07-01 09:00:00 20.9 10 Oeste 21 Oeste 0 -- -- 55
2020-07-01 08:00:00 19 0 Calma 6 Sur 0 -- -- 64
2020-07-01 07:00:00 16.7 3 Sudeste 5 Sur 0 -- -- 70
2020-07-01 06:00:00 17.9 2 Sudeste 17 Sudoeste 0 -- -- 66
2020-07-01 05:00:00 18.3 0 Calma 14 Oeste 0 -- -- 66
2020-07-01 04:00:00 19.1 10 Sudoeste 14 Oeste 0 -- -- 63
2020-07-01 03:00:00 19.4 0 Calma 24 Sudoeste 0 -- -- 58
2020-07-01 02:00:00 21.4 11 Oeste 31 Oeste 0 -- -- 52
2020-07-01 01:00:00 22.3 17 Oeste 31 Sudoeste 0 -- -- 44
2020-07-01 00:00:00 23.9 15 Sudoeste 33 Sudoeste 0 -- -- 40
2020-06-30 23:00:00 24.7 17 Sudoeste 29 Sudoeste 0 -- -- 40
2020-06-30 22:00:00 25.3 12 Sudoeste 29 Oeste 0 -- -- 38
2020-06-30 21:00:00 27.5 15 Sudoeste 34 Oeste 0 -- -- 33
2020-06-30 20:00:00 29 21 Oeste 35 Oeste 0 -- -- 32
2020-06-30 19:00:00 30.8 7 Sudoeste 32 Oeste 0 -- -- 27
2020-06-30 18:00:00 31 17 Sur 39 Oeste 0 -- -- 25
2020-06-30 17:00:00 31.1 19 Oeste 36 Sur 0 -- -- 26
2020-06-30 16:00:00 29.9 15 Sudoeste 34 Este 0 -- -- 31
2020-06-30 15:00:00 30.2 19 Sudeste 32 Sur 0 -- -- 30
2020-06-30 14:00:00 30.4 8 Sur 21 Norte 0 -- -- 31
2020-06-30 13:00:00 29.4 11 Noroeste 22 Oeste 0 -- -- 32
2020-06-30 12:00:00 28.8 10 Noroeste 24 Oeste 0 -- -- 33
2020-06-30 11:00:00 28.5 4 Sudeste 8 Este 0 -- -- 35
2020-06-30 10:00:00 26.2 4 Este 6 Este 0 -- -- 39
2020-06-30 09:00:00 22.9 0 Calma 4 Nordeste 0 -- -- 49
2020-06-30 08:00:00 20.1 0 Calma 4 Oeste 0 -- -- 53
2020-06-30 07:00:00 17.4 3 Sur 7 Sur 0 -- -- 57
2020-06-30 06:00:00 17.8 0 Calma 8 Sur 0 -- -- 55
2020-06-30 05:00:00 17.9 0 Calma 10 Oeste 0 -- -- 55
2020-06-30 04:00:00 18.8 4 Oeste 12 Sur 0 -- -- 52
2020-06-30 03:00:00 18.5 2 Sur 6 Este 0 -- -- 55
2020-06-30 02:00:00 19.6 0 Calma 14 Sur 0 -- -- 51
2020-06-30 01:00:00 21.4 11 Sur 14 Sur 0 -- -- 47
2020-06-30 00:00:00 22.1 4 Sur 13 Sudoeste 0 -- -- 43
2020-06-29 23:00:00 22.5 10 Oeste 15 Sudoeste 0 -- -- 43
2020-06-29 22:00:00 24.3 9 Oeste 14 Oeste 0 -- -- 40
2020-06-29 21:00:00 28.4 10 Oeste 20 Oeste 0 -- -- 32
2020-06-29 20:00:00 29.9 12 Oeste 21 Oeste 0 -- -- 29
2020-06-29 19:00:00 30.7 12 Oeste 25 Oeste 0 -- -- 27
2020-06-29 18:00:00 30.7 13 Noroeste 28 Oeste 0 -- -- 27
2020-06-29 17:00:00 31.4 8 Noroeste 21 Oeste 0 -- -- 27
2020-06-29 16:00:00 30.9 9 Oeste 24 Oeste 0 -- -- 28
2020-06-29 15:00:00 30.2 17 Oeste 25 Oeste 0 -- -- 29
2020-06-29 14:00:00 29.8 13 Oeste 25 Sudoeste 0 -- -- 28
2020-06-29 13:00:00 28.4 6 Oeste 15 Oeste 0 -- -- 29
2020-06-29 12:00:00 25.8 4 Nordeste 12 Nordeste 0 -- -- 46
2020-06-29 11:00:00 23.5 6 Este 12 Este 0 -- -- 54
2020-06-29 10:00:00 21.5 4 Este 8 Nordeste 0 -- -- 59
2020-06-29 09:00:00 19.3 0 Calma 5 Noroeste 0 -- -- 66
2020-06-29 08:00:00 16.6 0 Calma 4 Noroeste 0 -- -- 74
2020-06-29 07:00:00 13.7 3 Sur 7 Sur 0 -- -- 81
2020-06-29 06:00:00 14.1 0 Calma 7 Sudoeste 0 -- -- 82
2020-06-29 05:00:00 14.9 0 Calma 9 Sur 0 -- -- 77
2020-06-29 04:00:00 15.8 3 Sudeste 12 Sudoeste 0 -- -- 75
2020-06-29 03:00:00 17 7 Sudoeste 13 Oeste 0 -- -- 72
2020-06-29 02:00:00 18.1 8 Oeste 14 Oeste 0 -- -- 68
2020-06-29 01:00:00 19.3 11 Oeste 22 Oeste 0 -- -- 63
2020-06-29 00:00:00 20.9 12 Oeste 30 Oeste 0 -- -- 57
2020-06-28 23:00:00 22.4 11 Sudoeste 25 Sudoeste 0 -- -- 49
2020-06-28 22:00:00 23.3 11 Oeste 18 Oeste 0 -- -- 44
2020-06-28 21:00:00 25.9 13 Oeste 27 Oeste 0 -- -- 39
2020-06-28 20:00:00 26.9 15 Noroeste 25 Noroeste 0 -- -- 38
2020-06-28 19:00:00 28 8 Noroeste 25 Noroeste 0 -- -- 36
2020-06-28 18:00:00 28.5 14 Noroeste 26 Noroeste 0 -- -- 35
2020-06-28 17:00:00 28.4 13 Noroeste 28 Oeste 0 -- -- 37
2020-06-28 16:00:00 28.1 6 Norte 24 Noroeste 0 -- -- 38
2020-06-28 15:00:00 26.8 11 Norte 17 Norte 0 -- -- 44
2020-06-28 14:00:00 25.6 6 Norte 22 Norte 0 -- -- 47
2020-06-28 13:00:00 25.8 6 Norte 15 Nordeste 0 -- -- 46
2020-06-28 12:00:00 23.9 6 Este 12 Este 0 -- -- 51
2020-06-28 11:00:00 21.8 3 Norte 10 Nordeste 0 -- -- 57
2020-06-28 10:00:00 19.7 4 Este 10 Nordeste 0 -- -- 63
2020-06-28 09:00:00 17.2 3 Norte 6 Nordeste 0 -- -- 70
2020-06-28 08:00:00 14.5 0 Calma 5 Noroeste 0 -- -- 79
2020-06-28 07:00:00 12.4 0 Calma 8 Sur 0 -- -- 84
2020-06-28 06:00:00 13.1 0 Calma 8 Sur 0 -- -- 81
2020-06-28 05:00:00 13.6 2 Sudoeste 8 Sur 0 -- -- 81
2020-06-28 04:00:00 14.8 3 Sur 12 Sur 0 -- -- 75
2020-06-28 03:00:00 15 3 Sudoeste 7 Sudoeste 0 -- -- 76
2020-06-28 02:00:00 15.2 0 Calma 10 Sudoeste 0 -- -- 73
2020-06-28 01:00:00 16.3 4 Oeste 12 Sudoeste 0 -- -- 68
2020-06-28 00:00:00 17.5 5 Oeste 15 Sudoeste 0 -- -- 64
2020-06-27 23:00:00 19 9 Oeste 26 Noroeste 0 -- -- 60
2020-06-27 22:00:00 20.4 11 Sudoeste 20 Oeste 0 -- -- 56
2020-06-27 21:00:00 22.8 13 Noroeste 25 Noroeste 0 -- -- 49
2020-06-27 20:00:00 24.1 18 Noroeste 27 Noroeste 0 -- -- 46
2020-06-27 19:00:00 25 19 Noroeste 34 Oeste 0 -- -- 42
2020-06-27 18:00:00 25.4 21 Noroeste 35 Noroeste 0 -- -- 39
2020-06-27 17:00:00 25.6 20 Noroeste 36 Oeste 0 -- -- 40
2020-06-27 16:00:00 25.7 22 Oeste 41 Oeste 0 -- -- 38
2020-06-27 15:00:00 25 20 Noroeste 35 Oeste 0 -- -- 45
2020-06-27 14:00:00 24.2 20 Noroeste 33 Oeste 0 -- -- 47
2020-06-27 13:00:00 24.5 14 Oeste 22 Oeste 0 -- -- 39
2020-06-27 12:00:00 22 5 Nordeste 11 Norte 0 -- -- 53
2020-06-27 11:00:00 19.9 5 Este 12 Este 0 -- -- 59
2020-06-27 10:00:00 17.8 3 Norte 9 Norte 0 -- -- 64
2020-06-27 09:00:00 15.6 3 Noroeste 8 Oeste 0 -- -- 74
2020-06-27 08:00:00 12.9 3 Norte 8 Sur 0 -- -- 81
2020-06-27 07:00:00 12.4 6 Sudoeste 11 Sudoeste 0 -- -- 82
2020-06-27 06:00:00 12.5 8 Oeste 15 Oeste 0 -- -- 83
2020-06-27 05:00:00 13 6 Sudoeste 18 Oeste 0 -- -- 78
2020-06-27 04:00:00 13.2 12 Oeste 17 Oeste 0 -- -- 77
2020-06-27 03:00:00 13.9 6 Oeste 24 Oeste 0 -- -- 72
2020-06-27 02:00:00 14.6 12 Oeste 22 Oeste 0 -- -- 69
2020-06-27 01:00:00 16.4 16 Oeste 24 Oeste 0 -- -- 62
2020-06-27 00:00:00 17.9 15 Oeste 33 Sudoeste 0 -- -- 55
2020-06-26 23:00:00 17.6 10 Oeste 19 Sudoeste 0 -- -- 49
2020-06-26 22:00:00 18.9 12 Oeste 30 Oeste 0 -- -- 43
2020-06-26 21:00:00 21.3 21 Oeste 36 Sudoeste 0 -- -- 45
2020-06-26 20:00:00 23.2 20 Oeste 39 Oeste 0 -- -- 34
2020-06-26 19:00:00 22.8 22 Oeste 37 Oeste 0 -- -- 30
2020-06-26 18:00:00 24.6 26 Oeste 41 Oeste 0 -- -- 30
2020-06-26 17:00:00 25.9 23 Oeste 42 Oeste 0 -- -- 27
2020-06-26 16:00:00 25.7 26 Oeste 40 Oeste 0 -- -- 29
2020-06-26 15:00:00 26 24 Oeste 42 Oeste 0 -- -- 24
2020-06-26 14:00:00 25.5 21 Oeste 33 Oeste 0 -- -- 33
2020-06-26 13:00:00 24.5 18 Oeste 36 Oeste 0 -- -- 35
2020-06-26 12:00:00 23.3 19 Oeste 29 Oeste 0 -- -- 32
2020-06-26 11:00:00 23.2 7 Noroeste 14 Oeste 0 -- -- 34
2020-06-26 10:00:00 21.6 7 Norte 12 Norte 0 -- -- 39
2020-06-26 09:00:00 17.9 3 Nordeste 6 Nordeste 0 -- -- 59
2020-06-26 08:00:00 16.5 2 Sudeste 9 Sur 0 -- -- 63
2020-06-26 07:00:00 13.9 5 Sur 12 Oeste 0 -- -- 68
2020-06-26 06:00:00 14 0 Calma 15 Sur 0 -- -- 70
2020-06-26 05:00:00 14.6 4 Este 8 Sur 0 -- -- 69
2020-06-26 04:00:00 16.2 0 Calma 9 Sudoeste 0 -- -- 63
2020-06-26 03:00:00 17.6 8 Sudoeste 15 Oeste 0 -- -- 59
2020-06-26 02:00:00 17.3 0 Calma 7 Oeste 0 -- -- 58
2020-06-26 01:00:00 17.8 0 Calma 11 Nordeste 0 -- -- 58
2020-06-26 00:00:00 20.4 6 Sur 23 Sudoeste 0 -- -- 51
2020-06-25 23:00:00 22.1 14 Sudoeste 22 Sudoeste 0 -- -- 45
2020-06-25 22:00:00 23.2 12 Sudoeste 26 Sudoeste 0 -- -- 40
2020-06-25 21:00:00 25.7 19 Sudoeste 26 Sur 0 -- -- 35
2020-06-25 20:00:00 26 17 Sur 28 Sur 0 -- -- 35
2020-06-25 19:00:00 27.8 14 Sudoeste 28 Sudoeste 0 -- -- 33
2020-06-25 18:00:00 28.9 14 Sur 33 Sudeste 0 -- -- 33
2020-06-25 17:00:00 28.7 19 Sudeste 36 Sudeste 0 -- -- 34
2020-06-25 16:00:00 29.5 17 Sur 33 Sudeste 0 -- -- 31
2020-06-25 15:00:00 28.1 6 Oeste 21 Sudoeste 0 -- -- 36
2020-06-25 14:00:00 28.8 9 Oeste 31 Sudeste 0 -- -- 35
2020-06-25 13:00:00 28.9 8 Este 21 Sudeste 0 -- -- 36
2020-06-25 12:00:00 26.9 4 Norte 13 Noroeste 0 -- -- 39
2020-06-25 11:00:00 24.5 0 Calma 6 Este 0 -- -- 43
2020-06-25 10:00:00 21.1 2 Norte 8 Oeste 0 -- -- 51
2020-06-25 09:00:00 20.8 3 Noroeste 10 Oeste 0 -- -- 51
2020-06-25 08:00:00 18.7 7 Oeste 13 Oeste 0 -- -- 56
2020-06-25 07:00:00 16.6 5 Oeste 11 Oeste 0 -- -- 58
2020-06-25 06:00:00 17.2 2 Noroeste 13 Sur 0 -- -- 56
2020-06-25 05:00:00 16.5 5 Sur 9 Sur 0 -- -- 59
2020-06-25 04:00:00 16.7 5 Oeste 9 Oeste 0 -- -- 59
2020-06-25 03:00:00 18.2 3 Sudeste 7 Sudoeste 0 -- -- 54
2020-06-25 02:00:00 18.7 5 Sur 9 Sur 0 -- -- 54
2020-06-25 01:00:00 19.6 0 Calma 8 Sudeste 0 -- -- 52
2020-06-25 00:00:00 20.6 3 Sur 10 Sur 0 -- -- 50
2020-06-24 23:00:00 22.1 10 Sur 17 Sur 0 -- -- 45
2020-06-24 22:00:00 23.4 7 Sudeste 21 Sudeste 0 -- -- 46
2020-06-24 21:00:00 25.4 6 Sudeste 24 Este 0 -- -- 42
2020-06-24 20:00:00 26.6 18 Este 29 Sudeste 0 -- -- 37
2020-06-24 19:00:00 27.4 13 Sudeste 29 Sudeste 0 -- -- 35
2020-06-24 18:00:00 27.6 19 Sudeste 35 Sudeste 0 -- -- 36
2020-06-24 17:00:00 27.4 23 Sudeste 41 Sur 0 -- -- 36
2020-06-24 16:00:00 27.4 23 Sudeste 54 Sudeste 0 -- -- 34
2020-06-24 15:00:00 28.6 34 Sudeste 49 Sudeste 0 -- -- 33
2020-06-24 14:00:00 29 27 Sudeste 56 Sudeste 0 -- -- 32
2020-06-24 13:00:00 30.1 19 Sudeste 34 Este 0 -- -- 30
2020-06-24 12:00:00 27.9 13 Sudeste 24 Este 0 -- -- 30
2020-06-24 11:00:00 24.8 3 Sudeste 9 Nordeste 0 -- -- 39
2020-06-24 10:00:00 21 3 Sudoeste 14 Oeste 0 -- -- 52
2020-06-24 09:00:00 20.5 5 Sudeste 17 Oeste 0 -- -- 48
2020-06-24 08:00:00 18.9 10 Sur 17 Noroeste 0 -- -- 51
2020-06-24 07:00:00 18.6 4 Oeste 13 Sur 0 -- -- 51
2020-06-24 06:00:00 18.9 8 Oeste 13 Noroeste 0 -- -- 49
2020-06-24 05:00:00 19.1 6 Oeste 12 Sur 0 -- -- 50
2020-06-24 04:00:00 19.3 3 Oeste 14 Sur 0 -- -- 48
2020-06-24 03:00:00 18.4 3 Sudoeste 12 Sur 0 -- -- 53
2020-06-24 02:00:00 21.7 5 Sur 10 Sudoeste 0 -- -- 41
2020-06-24 01:00:00 21.5 4 Sudoeste 10 Sudoeste 0 -- -- 42
2020-06-24 00:00:00 21.9 2 Sudoeste 10 Sur 0 -- -- 41
2020-06-23 23:00:00 23.3 3 Sudeste 13 Oeste 0 -- -- 37
2020-06-23 22:00:00 26.2 9 Sudoeste 21 Sudoeste 0 -- -- 31
2020-06-23 21:00:00 28.7 10 Sudoeste 32 Sur 0 -- -- 29
2020-06-23 20:00:00 29.8 10 Sur 26 Sur 0 -- -- 29
2020-06-23 19:00:00 28.2 17 Sur 28 Sur 0 -- -- 29
2020-06-23 18:00:00 29.5 15 Sur 25 Sur 0 -- -- 27
2020-06-23 17:00:00 30.7 12 Sur 26 Sur 0 -- -- 26
2020-06-23 16:00:00 32.2 13 Sudeste 27 Sudeste 0 -- -- 24
2020-06-23 15:00:00 33 9 Oeste 31 Sudeste 0 -- -- 24
2020-06-23 14:00:00 31.3 17 Sudeste 35 Este 0 -- -- 24
2020-06-23 13:00:00 30.8 18 Sudeste 29 Sur 0 -- -- 27
2020-06-23 12:00:00 29.8 17 Sudeste 26 Sudeste 0 -- -- 31
2020-06-23 11:00:00 26.8 5 Este 9 Este 0 -- -- 38
2020-06-23 10:00:00 24.8 4 Nordeste 8 Nordeste 0 -- -- 39
2020-06-23 09:00:00 22.1 4 Noroeste 6 Oeste 0 -- -- 47
2020-06-23 08:00:00 18.4 2 Sudeste 9 Sur 0 -- -- 55
2020-06-23 07:00:00 17.2 0 Calma 9 Sur 0 -- -- 50
2020-06-23 06:00:00 17.3 4 Sudoeste 12 Sur 0 -- -- 48
2020-06-23 05:00:00 16.7 3 Oeste 15 Sudoeste 0 -- -- 50
2020-06-23 04:00:00 15.7 5 Este 18 Nordeste 0 -- -- 56
2020-06-23 03:00:00 18.3 0 Calma 8 Sudoeste 0 -- -- 45
2020-06-23 02:00:00 19.3 4 Sur 14 Sur 0 -- -- 42
2020-06-23 01:00:00 20.1 6 Sur 17 Sur 0 -- -- 43
2020-06-23 00:00:00 21.6 12 Sur 17 Sur 0 -- -- 38
2020-06-22 23:00:00 23.3 7 Sur 25 Oeste 0 -- -- 35
2020-06-22 22:00:00 24.3 13 Oeste 20 Sudoeste 0 -- -- 37
2020-06-22 21:00:00 28.2 13 Sudoeste 20 Sudoeste 0 -- -- 30
2020-06-22 20:00:00 27.6 6 Sur 14 Sur 0 -- -- 33
2020-06-22 19:00:00 30.2 6 Este 14 Noroeste 0 -- -- 25
2020-06-22 18:00:00 30.4 4 Este 28 Este 0 -- -- 24
2020-06-22 17:00:00 30.7 9 Este 27 Este 0 -- -- 24
2020-06-22 16:00:00 30.3 16 Este 26 Sudeste 0 -- -- 27
2020-06-22 15:00:00 29.1 10 Nordeste 22 Nordeste 0 -- -- 29
2020-06-22 14:00:00 29.2 11 Sudeste 26 Sudeste 0 -- -- 28
2020-06-22 13:00:00 27.3 13 Nordeste 23 Nordeste 0 -- -- 32
2020-06-22 12:00:00 26.1 13 Nordeste 23 Nordeste 0 -- -- 35
2020-06-22 11:00:00 24.4 4 Este 10 Nordeste 0 -- -- 37
2020-06-22 10:00:00 21.9 2 Nordeste 5 Norte 0 -- -- 43
2020-06-22 09:00:00 18.5 2 Nordeste 4 Este 0 -- -- 50
2020-06-22 08:00:00 17 0 Calma 3 Sur 0 -- -- 54
2020-06-22 07:00:00 14.2 0 Calma 13 Nordeste 0 -- -- 55
2020-06-22 06:00:00 14.7 6 Sur 10 Sur 0 -- -- 53
2020-06-22 05:00:00 14.9 3 Sur 8 Sudoeste 0 -- -- 50
2020-06-22 04:00:00 15.1 5 Sudoeste 12 Sur 0 -- -- 50
2020-06-22 03:00:00 17.2 11 Sur 16 Oeste 0 -- -- 43
2020-06-22 02:00:00 17.8 13 Oeste 19 Oeste 0 -- -- 46
2020-06-22 01:00:00 18.6 13 Sur 16 Sur 0 -- -- 39
2020-06-22 00:00:00 19.1 5 Sur 15 Sudoeste 0 -- -- 39
2020-06-21 23:00:00 20.2 11 Sur 19 Oeste 0 -- -- 37
2020-06-21 22:00:00 22.6 10 Oeste 19 Sudoeste 0 -- -- 33
2020-06-21 21:00:00 24.8 8 Noroeste 22 Noroeste 0 -- -- 31
2020-06-21 20:00:00 26.3 12 Noroeste 24 Noroeste 0 -- -- 29
2020-06-21 19:00:00 26.9 13 Noroeste 26 Noroeste 0 -- -- 26
2020-06-21 18:00:00 27.6 12 Oeste 28 Noroeste 0 -- -- 26
2020-06-21 17:00:00 27.7 12 Oeste 27 Oeste 0 -- -- 32
2020-06-21 16:00:00 27.2 11 Oeste 24 Oeste 0 -- -- 35
2020-06-21 15:00:00 26.4 13 Noroeste 23 Noroeste 0 -- -- 37
2020-06-21 14:00:00 26.8 8 Norte 20 Noroeste 0 -- -- 38
2020-06-21 13:00:00 25.2 4 Oeste 13 Norte 0 -- -- 41
2020-06-21 12:00:00 23.2 6 Nordeste 13 Nordeste 0 -- -- 45
2020-06-21 11:00:00 21.4 4 Este 10 Nordeste 0 -- -- 48
2020-06-21 10:00:00 19.6 3 Nordeste 7 Este 0 -- -- 54
2020-06-21 09:00:00 17.4 2 Norte 5 Noroeste 0 -- -- 60
2020-06-21 08:00:00 14.5 0 Calma 6 Sur 0 -- -- 67
2020-06-21 07:00:00 11.5 5 Sur 8 Oeste 0 -- -- 76
2020-06-21 06:00:00 11.5 2 Sudeste 10 Sur 0 -- -- 75
2020-06-21 05:00:00 13.7 7 Sudoeste 13 Oeste 0 -- -- 66
2020-06-21 04:00:00 14.2 9 Oeste 12 Oeste 0 -- -- 65
2020-06-21 03:00:00 15 4 Sur 12 Sudoeste 0 -- -- 62
2020-06-21 02:00:00 15.6 6 Oeste 18 Oeste 0 -- -- 60
2020-06-21 01:00:00 18.4 13 Oeste 28 Oeste 0 -- -- 53
2020-06-21 00:00:00 19.6 13 Oeste 23 Sudoeste 0 -- -- 41
2020-06-20 23:00:00 19.7 13 Oeste 18 Oeste 0 -- -- 43
2020-06-20 22:00:00 21.3 11 Sudoeste 17 Sudoeste 0 -- -- 43
2020-06-20 21:00:00 24 12 Oeste 28 Oeste 0 -- -- 37
2020-06-20 20:00:00 25.4 17 Oeste 31 Oeste 0 -- -- 32
2020-06-20 19:00:00 26.2 19 Oeste 32 Oeste 0 -- -- 30
2020-06-20 18:00:00 27 19 Oeste 31 Oeste 0 -- -- 29
2020-06-20 17:00:00 27.1 17 Oeste 31 Oeste 0 -- -- 30
2020-06-20 16:00:00 26.8 18 Oeste 33 Oeste 0 -- -- 30
2020-06-20 15:00:00 26.4 16 Oeste 34 Oeste 0 -- -- 29
2020-06-20 14:00:00 25.4 20 Oeste 32 Oeste 0 -- -- 32
2020-06-20 13:00:00 24.8 17 Oeste 28 Oeste 0 -- -- 32
2020-06-20 12:00:00 23.1 7 Norte 16 Sudoeste 0 -- -- 37
2020-06-20 11:00:00 20.9 3 Este 12 Nordeste 0 -- -- 46
2020-06-20 10:00:00 19.1 0 Calma 6 Norte 0 -- -- 51
2020-06-20 09:00:00 17.1 3 Nordeste 5 Nordeste 0 -- -- 57
2020-06-20 08:00:00 13.8 0 Calma 5 Sudeste 0 -- -- 65
2020-06-20 07:00:00 10.9 3 Este 13 Sur 0 -- -- 73
2020-06-20 06:00:00 12 2 Oeste 10 Sudoeste 0 -- -- 70
2020-06-20 05:00:00 13.1 5 Sudoeste 13 Sudoeste 0 -- -- 66
2020-06-20 04:00:00 13 3 Sudoeste 13 Oeste 0 -- -- 63
2020-06-20 03:00:00 15.6 12 Oeste 24 Oeste 0 -- -- 56
2020-06-20 02:00:00 14.7 12 Oeste 16 Oeste 0 -- -- 49
2020-06-20 01:00:00 15.3 5 Sudoeste 17 Oeste 0 -- -- 49
2020-06-20 00:00:00 16.6 9 Oeste 30 Sudoeste 0 -- -- 44
2020-06-19 23:00:00 18.7 14 Oeste 31 Oeste 0 -- -- 38
2020-06-19 22:00:00 19.5 14 Oeste 23 Oeste 0 -- -- 37
2020-06-19 21:00:00 22.2 14 Oeste 25 Oeste 0 -- -- 39
2020-06-19 20:00:00 23.5 17 Oeste 30 Oeste 0 -- -- 35
2020-06-19 19:00:00 24.2 21 Oeste 36 Oeste 0 -- -- 33
2020-06-19 18:00:00 25.1 18 Oeste 33 Oeste 0 -- -- 33
2020-06-19 17:00:00 24.5 18 Oeste 35 Oeste 0 -- -- 36
2020-06-19 16:00:00 24.5 16 Oeste 32 Noroeste 0 -- -- 37
2020-06-19 15:00:00 24.1 16 Oeste 33 Oeste 0 -- -- 36
2020-06-19 14:00:00 23.4 19 Noroeste 42 Noroeste 0 -- -- 35
2020-06-19 13:00:00 22.7 18 Oeste 29 Oeste 0 -- -- 40
2020-06-19 12:00:00 21.5 15 Oeste 26 Oeste 0 -- -- 42
2020-06-19 11:00:00 19.2 5 Nordeste 10 Este 0 -- -- 48
2020-06-19 10:00:00 17.8 2 Este 8 Nordeste 0 -- -- 50
2020-06-19 09:00:00 15.8 2 Sudeste 5 Sudeste 0 -- -- 58
2020-06-19 08:00:00 12.1 0 Calma 11 Sur 0 -- -- 68
2020-06-19 07:00:00 9.8 0 Calma 9 Sur 0 -- -- 73
2020-06-19 06:00:00 10.8 8 Sudoeste 13 Sur 0 -- -- 69
2020-06-19 05:00:00 10.8 8 Sur 10 Sur 0 -- -- 68
2020-06-19 04:00:00 11.6 12 Oeste 21 Oeste 0 -- -- 66
2020-06-19 03:00:00 12.9 11 Oeste 20 Oeste 0 -- -- 63
2020-06-19 02:00:00 13.7 10 Oeste 15 Sudoeste 0 -- -- 56
2020-06-19 01:00:00 13.7 8 Oeste 16 Oeste 0 -- -- 54
2020-06-19 00:00:00 15.6 10 Oeste 30 Sudoeste 0 -- -- 49
2020-06-18 23:00:00 17.7 20 Oeste 31 Oeste 0 -- -- 44
2020-06-18 22:00:00 18.7 10 Oeste 19 Oeste 0 -- -- 48
2020-06-18 21:00:00 20 10 Oeste 24 Oeste 0 -- -- 44
2020-06-18 20:00:00 21.8 13 Noroeste 28 Oeste 0 -- -- 40
2020-06-18 19:00:00 22.5 18 Oeste 31 Oeste 0 -- -- 39
2020-06-18 18:00:00 23.2 22 Oeste 36 Noroeste 0 -- -- 38
2020-06-18 17:00:00 22.9 20 Oeste 35 Noroeste 0 -- -- 39
2020-06-18 16:00:00 22.7 19 Noroeste 31 Oeste 0 -- -- 41
2020-06-18 15:00:00 21.6 13 Oeste 28 Oeste 0 -- -- 43
2020-06-18 14:00:00 21.2 10 Oeste 19 Oeste 0 -- -- 43
2020-06-18 13:00:00 20.5 5 Nordeste 17 Nordeste 0 -- -- 47
2020-06-18 12:00:00 20 7 Oeste 17 Norte 0 -- -- 47
2020-06-18 11:00:00 17.9 5 Nordeste 10 Nordeste 0 -- -- 51
2020-06-18 10:00:00 16.3 4 Nordeste 9 Nordeste 0 -- -- 55
2020-06-18 09:00:00 15 2 Este 4 Nordeste 0 -- -- 58
2020-06-18 08:00:00 12.4 0 Calma 4 Sur 0 -- -- 67
2020-06-18 07:00:00 9.2 0 Calma 10 Sur 0 -- -- 75
2020-06-18 06:00:00 10.6 9 Sur 14 Sudoeste 0 -- -- 68
2020-06-18 05:00:00 10.4 7 Sur 12 Oeste 0 -- -- 68
2020-06-18 04:00:00 10.4 7 Oeste 12 Sudoeste 0 -- -- 69
2020-06-18 03:00:00 12.1 8 Oeste 15 Sudoeste 0 -- -- 62
2020-06-18 02:00:00 13.8 9 Oeste 20 Oeste 0 -- -- 56
2020-06-18 01:00:00 14.9 10 Oeste 16 Oeste 0 -- -- 53
2020-06-18 00:00:00 14.6 7 Oeste 12 Oeste 0 -- -- 56
2020-06-17 23:00:00 15.4 8 Oeste 17 Oeste 0 -- -- 54
2020-06-17 22:00:00 16 11 Oeste 17 Oeste 0 -- -- 54
2020-06-17 21:00:00 17.7 13 Sudoeste 21 Noroeste 0 -- -- 47
2020-06-17 20:00:00 19.5 16 Oeste 30 Oeste 0 -- -- 40
2020-06-17 19:00:00 20.1 16 Oeste 32 Oeste 0 -- -- 40
2020-06-17 18:00:00 20.5 19 Oeste 36 Oeste 0 -- -- 36
2020-06-17 17:00:00 21.2 17 Oeste 33 Oeste 0 -- -- 36
2020-06-17 16:00:00 20.5 13 Noroeste 27 Oeste 0 -- -- 39
2020-06-17 15:00:00 19.1 12 Noroeste 27 Norte 0 -- -- 45
2020-06-17 14:00:00 18.4 6 Este 21 Norte 0 -- -- 47
2020-06-17 13:00:00 18.6 4 Nordeste 16 Norte 0 -- -- 48
2020-06-17 12:00:00 16.4 7 Este 14 Este 0 -- -- 53
2020-06-17 11:00:00 14.8 6 Norte 14 Norte 0 -- -- 59
2020-06-17 10:00:00 14 6 Nordeste 10 Nordeste 0 -- -- 62
2020-06-17 09:00:00 12.1 4 Noroeste 9 Noroeste 0 -- -- 70
2020-06-17 08:00:00 10.5 6 Oeste 13 Oeste 0 -- -- 77
2020-06-17 07:00:00 7.6 4 Sur 10 Oeste 0 -- -- 83
2020-06-17 06:00:00 8.5 6 Sudoeste 13 Oeste 0 -- -- 83
2020-06-17 05:00:00 8.9 9 Oeste 17 Oeste 0 -- -- 83
2020-06-17 04:00:00 9.8 6 Oeste 12 Sudoeste 0 -- -- 79
2020-06-17 03:00:00 10 3 Noroeste 21 Oeste 0 -- -- 76
2020-06-17 02:00:00 11.5 15 Oeste 32 Oeste 0 -- -- 72
2020-06-17 01:00:00 11.5 14 Oeste 29 Sudoeste 0 -- -- 69
2020-06-17 00:00:00 12.5 14 Oeste 27 Oeste 0 -- -- 63
2020-06-16 23:00:00 13.5 10 Oeste 22 Oeste 0 -- -- 63
2020-06-16 22:00:00 14.2 9 Oeste 26 Oeste 0 -- -- 64
2020-06-16 21:00:00 15.9 18 Oeste 33 Oeste 0 -- -- 59
2020-06-16 20:00:00 18.1 23 Oeste 38 Oeste 0 -- -- 49
2020-06-16 19:00:00 18.9 16 Oeste 33 Oeste 0 -- -- 48
2020-06-16 18:00:00 17.6 15 Sudoeste 48 Sudoeste 0 -- -- 59
2020-06-16 17:00:00 17.7 20 Oeste 42 Noroeste 0 -- -- 56
2020-06-16 16:00:00 20.2 23 Oeste 37 Oeste 0 -- -- 44
2020-06-16 15:00:00 18.8 26 Oeste 40 Oeste 0 -- -- 46
2020-06-16 14:00:00 19.8 19 Oeste 32 Sudoeste 0 -- -- 43
2020-06-16 13:00:00 17.9 17 Noroeste 30 Noroeste 0 -- -- 50
2020-06-16 12:00:00 16.4 12 Noroeste 23 Oeste 0 -- -- 52
2020-06-16 11:00:00 15.6 13 Oeste 23 Oeste 0 -- -- 59
2020-06-16 10:00:00 13.3 13 Oeste 22 Oeste 0 -- -- 68
2020-06-16 09:00:00 11.4 5 Oeste 18 Oeste 0 -- -- 81
2020-06-16 08:00:00 10.6 6 Noroeste 12 Oeste 0 -- -- 82
2020-06-16 07:00:00 10.2 0 Calma 15 Noroeste 0 -- -- 84
2020-06-16 06:00:00 10.7 9 Noroeste 14 Noroeste 0 -- -- 83
2020-06-16 05:00:00 11.2 10 Noroeste 16 Oeste 0 -- -- 79
2020-06-16 04:00:00 11.3 4 Noroeste 6 Noroeste 0 -- -- 79
2020-06-16 03:00:00 11.8 6 Noroeste 13 Oeste 0 -- -- 76
2020-06-16 02:00:00 12.1 11 Oeste 20 Oeste 0 -- -- 74
2020-06-16 01:00:00 12.1 10 Oeste 19 Oeste 0 -- -- 74
2020-06-16 00:00:00 12.6 9 Oeste 28 Oeste 0 -- -- 72
2020-06-15 23:00:00 13.6 13 Sudoeste 28 Sudoeste 0 -- -- 68
2020-06-15 22:00:00 15 15 Oeste 26 Oeste 0 -- -- 61
2020-06-15 21:00:00 16.6 14 Oeste 28 Oeste 0 -- -- 56
2020-06-15 20:00:00 18.9 14 Oeste 30 Oeste 0 -- -- 53
2020-06-15 19:00:00 19.7 19 Oeste 38 Noroeste 0 -- -- 51
2020-06-15 18:00:00 20.1 19 Oeste 36 Noroeste 0 -- -- 48
2020-06-15 17:00:00 21.5 23 Oeste 36 Oeste 0 -- -- 43
2020-06-15 16:00:00 21.3 19 Noroeste 35 Oeste 0 -- -- 47
2020-06-15 15:00:00 20.2 8 Oeste 20 Noroeste 0 -- -- 54
2020-06-15 14:00:00 18.5 7 Noroeste 26 Noroeste 0 -- -- 57
2020-06-15 13:00:00 18.7 5 Oeste 13 Norte 0 -- -- 55
2020-06-15 12:00:00 18.5 4 Sudeste 13 Este 0 -- -- 55
2020-06-15 11:00:00 15.6 6 Norte 12 Norte 0 -- -- 64
2020-06-15 10:00:00 14.1 3 Norte 9 Nordeste 0 -- -- 67
2020-06-15 09:00:00 13.1 5 Nordeste 9 Nordeste 0 -- -- 73
2020-06-15 08:00:00 10.5 0 Calma 4 Sur 0 -- -- 81
2020-06-15 07:00:00 9.6 0 Calma 8 Sur 0 -- -- 82
2020-06-15 06:00:00 9.7 2 Noroeste 6 Sur 0 -- -- 84
2020-06-15 05:00:00 10.1 3 Sudoeste 6 Oeste 0 -- -- 81
2020-06-15 04:00:00 10.1 3 Sur 10 Sur 0 -- -- 78
2020-06-15 03:00:00 10.5 7 Sur 9 Sur 0 -- -- 77
2020-06-15 02:00:00 11.5 7 Oeste 17 Oeste 0 -- -- 75
2020-06-15 01:00:00 12.4 12 Oeste 25 Oeste 0 -- -- 70
2020-06-15 00:00:00 13.2 12 Oeste 23 Noroeste 0 -- -- 65
2020-06-14 23:00:00 13.7 7 Oeste 19 Oeste 0 -- -- 64
2020-06-14 22:00:00 14.9 12 Oeste 22 Oeste 0 -- -- 59
2020-06-14 21:00:00 15.9 14 Oeste 25 Oeste 0 -- -- 57
2020-06-14 20:00:00 17.6 15 Oeste 27 Oeste 0 -- -- 54
2020-06-14 19:00:00 18.5 18 Oeste 32 Noroeste 0 -- -- 51
2020-06-14 18:00:00 19.9 15 Noroeste 33 Oeste 0 -- -- 47
2020-06-14 17:00:00 20.2 19 Oeste 35 Noroeste 0 -- -- 45
2020-06-14 16:00:00 19.3 20 Oeste 33 Oeste 0 -- -- 46
2020-06-14 15:00:00 19.4 15 Oeste 32 Oeste 0 -- -- 43
2020-06-14 14:00:00 18.4 17 Oeste 34 Oeste 0 -- -- 45
2020-06-14 13:00:00 17.8 22 Oeste 36 Oeste 0 -- -- 46
2020-06-14 12:00:00 16.3 22 Oeste 32 Oeste 0 -- -- 49
2020-06-14 11:00:00 15.2 2 Noroeste 9 Este 0 -- -- 61
2020-06-14 10:00:00 13.2 3 Norte 8 Norte 0 -- -- 66
2020-06-14 09:00:00 10.7 3 Noroeste 5 Norte 0 -- -- 75
2020-06-14 08:00:00 7.1 0 Calma 8 Oeste 0 -- -- 86
2020-06-14 07:00:00 6.5 0 Calma 8 Sur 0 -- -- 84
2020-06-14 06:00:00 7.1 0 Calma 9 Sudoeste 0 -- -- 84
2020-06-14 05:00:00 8 7 Oeste 12 Oeste 0 -- -- 82
2020-06-14 04:00:00 9.5 6 Oeste 11 Sudoeste 0 -- -- 76
2020-06-14 03:00:00 10.3 6 Oeste 15 Oeste 0 -- -- 74
2020-06-14 02:00:00 10.2 2 Sudoeste 19 Oeste 0 -- -- 77
2020-06-14 01:00:00 10.2 8 Oeste 17 Noroeste 0 -- -- 77
2020-06-14 00:00:00 10.6 8 Noroeste 26 Oeste 0 -- -- 72
2020-06-13 23:00:00 12.3 19 Oeste 34 Sudoeste 0 -- -- 63
2020-06-13 22:00:00 12.8 22 Sudoeste 33 Oeste 0 -- -- 61
2020-06-13 21:00:00 14.1 19 Oeste 34 Oeste 0 -- -- 57
2020-06-13 20:00:00 15.1 19 Oeste 31 Oeste 0 -- -- 54
2020-06-13 19:00:00 16.3 18 Oeste 37 Oeste 0 -- -- 50
2020-06-13 18:00:00 17.5 24 Oeste 40 Oeste 0 -- -- 46
2020-06-13 17:00:00 17.7 25 Oeste 41 Oeste 0 -- -- 48
2020-06-13 16:00:00 17.4 26 Oeste 39 Oeste 0 -- -- 48
2020-06-13 15:00:00 16.5 27 Oeste 38 Oeste 0 -- -- 47
2020-06-13 14:00:00 15.8 24 Oeste 36 Oeste 0 -- -- 56
2020-06-13 13:00:00 14.6 19 Oeste 30 Oeste 0 -- -- 58
2020-06-13 12:00:00 13.4 13 Oeste 28 Oeste 0 -- -- 60
2020-06-13 11:00:00 11.7 17 Oeste 27 Oeste 0 -- -- 65
2020-06-13 10:00:00 10.8 15 Oeste 23 Oeste 0 -- -- 70
2020-06-13 09:00:00 10.2 15 Oeste 27 Oeste 0 -- -- 73
2020-06-13 08:00:00 9.2 19 Oeste 30 Oeste 0 -- -- 77
2020-06-13 07:00:00 6.8 15 Oeste 25 Oeste 0 -- -- 88
2020-06-13 06:00:00 7.1 12 Oeste 22 Oeste 0 -- -- 83
2020-06-13 05:00:00 7.8 16 Oeste 30 Oeste 0 -- -- 84
2020-06-13 04:00:00 7.6 17 Oeste 29 Oeste 0 -- -- 87
2020-06-13 03:00:00 8 19 Oeste 44 Oeste 0 -- -- 82
2020-06-13 02:00:00 7.9 22 Oeste 34 Oeste 0 -- -- 84
2020-06-13 01:00:00 7.8 22 Oeste 48 Oeste 0 -- -- 84
2020-06-13 00:00:00 8.2 21 Oeste 37 Oeste 0 -- -- 81
2020-06-12 23:00:00 8.6 17 Oeste 35 Oeste 0 -- -- 84
2020-06-12 22:00:00 8.5 9 Oeste 26 Oeste 0.6 -- -- 87
2020-06-12 21:00:00 8.8 8 Oeste 33 Sudoeste 2.2 -- -- 86
2020-06-12 20:00:00 10.4 9 Oeste 42 Oeste 1 -- -- 77
2020-06-12 19:00:00 8.2 24 Oeste 52 Sudoeste 3.4 -- -- 86
2020-06-12 18:00:00 13.6 24 Oeste 41 Oeste 0 -- -- 61
2020-06-12 17:00:00 12.6 26 Oeste 47 Sudoeste 0.2 -- -- 75
2020-06-12 16:00:00 15.2 21 Sudoeste 42 Sudoeste 0 -- -- 56
2020-06-12 15:00:00 13.5 20 Oeste 43 Oeste 0 -- -- 66
2020-06-12 14:00:00 13 23 Oeste 42 Oeste 0 -- -- 59
2020-06-12 13:00:00 12.8 23 Oeste 42 Oeste 0 -- -- 64
2020-06-12 12:00:00 11.6 19 Sudoeste 42 Oeste 0 -- -- 66
2020-06-12 11:00:00 9.8 23 Oeste 48 Oeste 0 -- -- 70
2020-06-12 10:00:00 8.9 19 Oeste 42 Oeste 0 -- -- 73
2020-06-12 09:00:00 7.7 14 Oeste 33 Oeste 0 -- -- 79
2020-06-12 08:00:00 7.4 17 Sudoeste 37 Sudoeste 0 -- -- 75
2020-06-12 07:00:00 6.9 18 Oeste 56 Sudoeste 0 -- -- 74
2020-06-12 06:00:00 6.6 25 Sudoeste 51 Oeste 0 -- -- 72
2020-06-12 05:00:00 6.4 24 Sudoeste 44 Sudoeste 0 -- -- 71
2020-06-12 04:00:00 6.5 17 Oeste 45 Sudoeste 0 -- -- 72
2020-06-12 03:00:00 6.3 24 Sudoeste 43 Sudoeste 0 -- -- 75
2020-06-12 02:00:00 6.8 21 Oeste 40 Oeste 0 -- -- 74
2020-06-12 01:00:00 7.6 17 Oeste 46 Oeste 0 -- -- 71
2020-06-12 00:00:00 8.3 28 Oeste 49 Oeste 0 -- -- 67
2020-06-11 23:00:00 9.4 26 Oeste 41 Oeste 0 -- -- 68
2020-06-11 22:00:00 11.7 21 Oeste 42 Sudoeste 0 -- -- 65
2020-06-11 21:00:00 13.7 19 Oeste 40 Oeste 0 -- -- 59
2020-06-11 20:00:00 13.6 23 Oeste 50 Sudoeste 0 -- -- 63
2020-06-11 19:00:00 15.3 19 Sudoeste 40 Oeste 0 -- -- 64
2020-06-11 18:00:00 16.8 26 Sudoeste 48 Oeste 0 -- -- 53
2020-06-11 17:00:00 18.6 32 Oeste 50 Oeste 0 -- -- 46
2020-06-11 16:00:00 17.6 28 Oeste 48 Oeste 0 -- -- 45
2020-06-11 15:00:00 16.9 21 Oeste 44 Sudoeste 0 -- -- 52
2020-06-11 14:00:00 16.7 26 Oeste 42 Noroeste 0 -- -- 56
2020-06-11 13:00:00 13.7 26 Oeste 39 Oeste 0 -- -- 61
2020-06-11 12:00:00 14.2 24 Oeste 49 Oeste 0 -- -- 59
2020-06-11 11:00:00 15.9 26 Oeste 46 Oeste 0 -- -- 55
2020-06-11 10:00:00 13 26 Oeste 41 Oeste 0 -- -- 66
2020-06-11 09:00:00 13.2 24 Oeste 35 Oeste 0 -- -- 70
2020-06-11 08:00:00 11.4 4 Este 10 Sudeste 0 -- -- 73
2020-06-11 07:00:00 8.2 2 Este 15 Noroeste 0 -- -- 84
2020-06-11 06:00:00 9 8 Oeste 18 Oeste 0 -- -- 83
2020-06-11 05:00:00 10.2 13 Oeste 17 Oeste 0 -- -- 78
2020-06-11 04:00:00 11.8 11 Oeste 28 Sudoeste 0 -- -- 71
2020-06-11 03:00:00 12.3 8 Oeste 25 Oeste 0 -- -- 70
2020-06-11 02:00:00 13.4 8 Oeste 23 Oeste 0 -- -- 57
2020-06-11 01:00:00 14 8 Oeste 30 Sudoeste 0 -- -- 50
2020-06-11 00:00:00 15.7 15 Sudoeste 30 Sudoeste 0 -- -- 39
2020-06-10 23:00:00 16.5 14 Sudoeste 22 Sudoeste 0 -- -- 37
2020-06-10 22:00:00 17.5 12 Sudoeste 27 Sudoeste 0 -- -- 35
2020-06-10 21:00:00 18.6 15 Oeste 31 Oeste 0 -- -- 34
2020-06-10 20:00:00 19.5 16 Oeste 32 Oeste 0 -- -- 33
2020-06-10 19:00:00 20.3 14 Oeste 33 Oeste 0 -- -- 35
2020-06-10 18:00:00 21.3 19 Oeste 37 Oeste 0 -- -- 32
2020-06-10 17:00:00 22 20 Oeste 32 Oeste 0 -- -- 35
2020-06-10 16:00:00 21.3 14 Noroeste 37 Oeste 0 -- -- 36
2020-06-10 15:00:00 21.5 18 Oeste 33 Oeste 0 -- -- 36
2020-06-10 14:00:00 21.2 10 Sudoeste 27 Oeste 0 -- -- 39
2020-06-10 13:00:00 20.5 11 Oeste 25 Oeste 0 -- -- 36
2020-06-10 12:00:00 19.2 9 Oeste 23 Oeste 0 -- -- 41
2020-06-10 11:00:00 17.4 7 Este 12 Este 0 -- -- 47
2020-06-10 10:00:00 13.7 3 Nordeste 6 Este 0 -- -- 59
2020-06-10 09:00:00 12.4 2 Nordeste 4 Nordeste 0 -- -- 61
2020-06-10 08:00:00 10 0 Calma 6 Sur 0 -- -- 72
2020-06-10 07:00:00 7 0 Calma 6 Sur 0 -- -- 72
2020-06-10 06:00:00 6.9 0 Calma 3 Sur 0 -- -- 72
2020-06-10 05:00:00 7.3 0 Calma 8 Oeste 0 -- -- 71
2020-06-10 04:00:00 7.5 4 Oeste 9 Oeste 0 -- -- 71
2020-06-10 03:00:00 7.1 4 Sudeste 13 Este 0 -- -- 73
2020-06-10 02:00:00 9.4 5 Sudoeste 9 Sur 0 -- -- 61
2020-06-10 01:00:00 10.1 8 Sur 12 Sur 0 -- -- 59
2020-06-10 00:00:00 11 10 Sur 12 Sur 0 -- -- 56
2020-06-09 23:00:00 12.3 5 Sur 9 Sudeste 0 -- -- 53
2020-06-09 22:00:00 13.5 0 Calma 10 Noroeste 0 -- -- 49
2020-06-09 21:00:00 14.7 7 Norte 20 Norte 0 -- -- 45
2020-06-09 20:00:00 17.2 13 Noroeste 26 Noroeste 0 -- -- 39
2020-06-09 19:00:00 18 7 Noroeste 25 Noroeste 0 -- -- 38
2020-06-09 18:00:00 18.6 15 Noroeste 30 Norte 0 -- -- 35
2020-06-09 17:00:00 18.5 12 Noroeste 30 Noroeste 0 -- -- 35
2020-06-09 16:00:00 17.9 16 Noroeste 30 Oeste 0 -- -- 37
2020-06-09 15:00:00 18.3 12 Noroeste 28 Noroeste 0 -- -- 37
2020-06-09 14:00:00 17.3 15 Noroeste 27 Noroeste 0 -- -- 39
2020-06-09 13:00:00 16.7 6 Noroeste 20 Norte 0 -- -- 46
2020-06-09 12:00:00 15.5 10 Norte 20 Norte 0 -- -- 52
2020-06-09 11:00:00 13.9 5 Este 12 Este 0 -- -- 56
2020-06-09 10:00:00 12.2 3 Este 8 Nordeste 0 -- -- 63
2020-06-09 09:00:00 9.3 0 Calma 5 Norte 0 -- -- 76
2020-06-09 08:00:00 5.7 2 Sur 4 Sur 0 -- -- 86
2020-06-09 07:00:00 4.9 2 Sur 6 Sur 0 -- -- 84
2020-06-09 06:00:00 5.5 5 Sur 6 Sur 0 -- -- 83
2020-06-09 05:00:00 6 4 Sur 9 Sur 0 -- -- 80
2020-06-09 04:00:00 6.4 5 Sur 6 Sur 0 -- -- 79
2020-06-09 03:00:00 6.7 0 Calma 10 Sur 0 -- -- 74
2020-06-09 02:00:00 6.9 0 Calma 8 Noroeste 0 -- -- 71
2020-06-09 01:00:00 8.2 4 Sur 13 Sur 0 -- -- 66
2020-06-09 00:00:00 9.8 10 Sur 12 Sur 0 -- -- 59
2020-06-08 23:00:00 10.2 4 Sudoeste 9 Oeste 0 -- -- 56
2020-06-08 22:00:00 11.7 6 Oeste 16 Nordeste 0 -- -- 50
2020-06-08 21:00:00 14 11 Norte 23 Norte 0 -- -- 44
2020-06-08 20:00:00 15.2 13 Norte 25 Norte 0 -- -- 43
2020-06-08 19:00:00 16.3 12 Norte 27 Norte 0 -- -- 43
2020-06-08 18:00:00 15.6 14 Norte 30 Noroeste 0 -- -- 43
2020-06-08 17:00:00 15.8 8 Norte 20 Norte 0 -- -- 43
2020-06-08 16:00:00 14.8 11 Norte 20 Nordeste 0 -- -- 48
2020-06-08 15:00:00 14.2 9 Nordeste 21 Nordeste 0 -- -- 51
2020-06-08 14:00:00 13.8 8 Norte 17 Nordeste 0 -- -- 54
2020-06-08 13:00:00 14.4 9 Norte 20 Nordeste 0 -- -- 55
2020-06-08 12:00:00 12.9 9 Nordeste 19 Nordeste 0 -- -- 55
2020-06-08 11:00:00 12 8 Este 17 Nordeste 0 -- -- 60
2020-06-08 10:00:00 11.2 6 Nordeste 12 Nordeste 0 -- -- 63
2020-06-08 09:00:00 8.6 6 Este 10 Nordeste 0 -- -- 78
2020-06-08 08:00:00 7.9 6 Nordeste 9 Nordeste 0 -- -- 79
2020-06-08 07:00:00 7.4 8 Este 12 Este 0 -- -- 86
2020-06-08 06:00:00 7.6 6 Este 13 Sudeste 0 -- -- 87
2020-06-08 05:00:00 7.8 8 Sudeste 13 Este 0 -- -- 88
2020-06-08 04:00:00 8.2 8 Este 18 Este 0 -- -- 88
2020-06-08 03:00:00 8.9 15 Este 22 Este 0 -- -- 89
2020-06-08 02:00:00 10 5 Este 8 Este 0 -- -- 89
2020-06-08 01:00:00 10.2 6 Este 14 Nordeste 0 -- -- 88
2020-06-08 00:00:00 11 6 Nordeste 20 Nordeste 0.2 -- -- 91
2020-06-07 23:00:00 12.2 6 Este 15 Este 1.2 -- -- 82
2020-06-07 22:00:00 13.4 5 Nordeste 24 Oeste 0 -- -- 73
2020-06-07 21:00:00 15.9 15 Oeste 32 Oeste 0 -- -- 47
2020-06-07 20:00:00 17.2 22 Oeste 37 Oeste 0 -- -- 49
2020-06-07 19:00:00 18.2 20 Oeste 35 Oeste 0 -- -- 45
2020-06-07 18:00:00 17.6 20 Oeste 38 Noroeste 0 -- -- 51
2020-06-07 17:00:00 17.4 24 Oeste 43 Oeste 0 -- -- 53
2020-06-07 16:00:00 17 22 Oeste 39 Oeste 0 -- -- 57
2020-06-07 15:00:00 17.4 21 Oeste 37 Oeste 0 -- -- 58
2020-06-07 14:00:00 16.7 23 Oeste 42 Oeste 0 -- -- 63
2020-06-07 13:00:00 16.4 31 Oeste 44 Oeste 0 -- -- 65
2020-06-07 12:00:00 15.9 29 Oeste 40 Oeste 0 -- -- 68
2020-06-07 11:00:00 15.7 27 Oeste 39 Oeste 0 -- -- 69
2020-06-07 10:00:00 14.1 19 Noroeste 27 Noroeste 0 -- -- 77
2020-06-07 09:00:00 14 16 Oeste 26 Oeste 0 -- -- 75
2020-06-07 08:00:00 11.5 12 Oeste 18 Oeste 0 -- -- 87
2020-06-07 07:00:00 10 2 Oeste 10 Oeste 0 -- -- 86
2020-06-07 06:00:00 10.6 0 Calma 13 Oeste 0 -- -- 88
2020-06-07 05:00:00 10.9 6 Oeste 13 Oeste 0 -- -- 87
2020-06-07 04:00:00 12 7 Oeste 11 Oeste 0 -- -- 84
2020-06-07 03:00:00 11.9 6 Oeste 21 Sudoeste 0 -- -- 82
2020-06-07 02:00:00 13 17 Oeste 27 Oeste 0 -- -- 76
2020-06-07 01:00:00 13.9 16 Oeste 28 Sudoeste 0 -- -- 64
2020-06-07 00:00:00 13.7 10 Oeste 33 Sudoeste 0 -- -- 54